sensor_id;sensor_type;location;lat;lon;timestamp;P1;durP1;ratioP1;P2;durP2;ratioP2
572;SDS011;271;51.114;13.780;2023-03-11T00:00:19;15.50;;;1.10;;
572;SDS011;271;51.114;13.780;2023-03-11T00:03:12;15.30;;;1.02;;
572;SDS011;271;51.114;13.780;2023-03-11T00:06:00;15.48;;;1.10;;
572;SDS011;271;51.114;13.780;2023-03-11T00:08:48;18.58;;;1.23;;
572;SDS011;271;51.114;13.780;2023-03-11T00:11:37;15.75;;;1.25;;
572;SDS011;271;51.114;13.780;2023-03-11T00:14:24;16.13;;;1.27;;
572;SDS011;271;51.114;13.780;2023-03-11T00:17:12;15.88;;;1.00;;
572;SDS011;271;51.114;13.780;2023-03-11T00:20:01;15.40;;;1.10;;
572;SDS011;271;51.114;13.780;2023-03-11T00:22:50;15.63;;;1.05;;
572;SDS011;271;51.114;13.780;2023-03-11T00:25:37;15.75;;;1.30;;
572;SDS011;271;51.114;13.780;2023-03-11T00:28:26;15.45;;;1.10;;
572;SDS011;271;51.114;13.780;2023-03-11T00:31:13;15.95;;;1.40;;
572;SDS011;271;51.114;13.780;2023-03-11T00:34:01;15.30;;;1.08;;
572;SDS011;271;51.114;13.780;2023-03-11T00:36:50;15.63;;;1.13;;
572;SDS011;271;51.114;13.780;2023-03-11T00:39:38;15.52;;;1.05;;
572;SDS011;271;51.114;13.780;2023-03-11T00:42:25;15.65;;;1.08;;
572;SDS011;271;51.114;13.780;2023-03-11T00:45:13;16.75;;;1.38;;
572;SDS011;271;51.114;13.780;2023-03-11T00:48:02;16.25;;;1.63;;
572;SDS011;271;51.114;13.780;2023-03-11T00:50:50;16.02;;;1.15;;
572;SDS011;271;51.114;13.780;2023-03-11T00:53:40;16.70;;;1.80;;
572;SDS011;271;51.114;13.780;2023-03-11T00:56:28;16.90;;;1.70;;
572;SDS011;271;51.114;13.780;2023-03-11T00:59:16;16.50;;;1.75;;
572;SDS011;271;51.114;13.780;2023-03-11T01:02:03;16.98;;;1.20;;
572;SDS011;271;51.114;13.780;2023-03-11T01:04:52;16.80;;;1.40;;
572;SDS011;271;51.114;13.780;2023-03-11T01:07:40;16.70;;;1.10;;
572;SDS011;271;51.114;13.780;2023-03-11T01:10:29;16.60;;;1.10;;
572;SDS011;271;51.114;13.780;2023-03-11T01:13:19;16.20;;;1.10;;
572;SDS011;271;51.114;13.780;2023-03-11T01:16:07;16.30;;;1.13;;
572;SDS011;271;51.114;13.780;2023-03-11T01:18:55;16.55;;;1.27;;
572;SDS011;271;51.114;13.780;2023-03-11T01:21:42;16.30;;;1.38;;
572;SDS011;271;51.114;13.780;2023-03-11T01:24:30;16.60;;;1.25;;
572;SDS011;271;51.114;13.780;2023-03-11T01:27:19;16.48;;;1.40;;
572;SDS011;271;51.114;13.780;2023-03-11T01:30:08;16.63;;;1.40;;
572;SDS011;271;51.114;13.780;2023-03-11T01:32:59;17.50;;;1.58;;
572;SDS011;271;51.114;13.780;2023-03-11T01:35:47;16.55;;;1.50;;
572;SDS011;271;51.114;13.780;2023-03-11T01:38:35;16.70;;;1.50;;
572;SDS011;271;51.114;13.780;2023-03-11T01:41:22;16.55;;;1.50;;
572;SDS011;271;51.114;13.780;2023-03-11T01:44:11;16.80;;;1.48;;
572;SDS011;271;51.114;13.780;2023-03-11T01:50:20;16.80;;;1.60;;
572;SDS011;271;51.114;13.780;2023-03-11T01:53:08;17.02;;;1.58;;
572;SDS011;271;51.114;13.780;2023-03-11T01:55:57;17.25;;;1.73;;
572;SDS011;271;51.114;13.780;2023-03-11T01:58:45;17.05;;;1.60;;
572;SDS011;271;51.114;13.780;2023-03-11T02:01:40;17.15;;;1.75;;
572;SDS011;271;51.114;13.780;2023-03-11T02:04:35;17.60;;;2.20;;
572;SDS011;271;51.114;13.780;2023-03-11T02:07:23;17.23;;;1.95;;
572;SDS011;271;51.114;13.780;2023-03-11T02:10:11;17.73;;;2.10;;
572;SDS011;271;51.114;13.780;2023-03-11T02:13:01;17.65;;;2.25;;
572;SDS011;271;51.114;13.780;2023-03-11T02:15:49;18.08;;;2.33;;
572;SDS011;271;51.114;13.780;2023-03-11T02:18:39;17.52;;;2.17;;
572;SDS011;271;51.114;13.780;2023-03-11T02:21:29;17.73;;;2.60;;
572;SDS011;271;51.114;13.780;2023-03-11T02:24:20;17.67;;;2.25;;
572;SDS011;271;51.114;13.780;2023-03-11T02:27:16;17.55;;;2.15;;
572;SDS011;271;51.114;13.780;2023-03-11T02:30:06;18.55;;;2.45;;
572;SDS011;271;51.114;13.780;2023-03-11T02:32:56;17.42;;;2.28;;
572;SDS011;271;51.114;13.780;2023-03-11T02:35:45;18.10;;;2.50;;
572;SDS011;271;51.114;13.780;2023-03-11T02:38:32;17.63;;;2.40;;
572;SDS011;271;51.114;13.780;2023-03-11T02:41:20;17.85;;;2.63;;
572;SDS011;271;51.114;13.780;2023-03-11T02:44:09;18.48;;;2.63;;
572;SDS011;271;51.114;13.780;2023-03-11T02:46:59;18.58;;;3.05;;
572;SDS011;271;51.114;13.780;2023-03-11T02:49:47;18.10;;;2.60;;
572;SDS011;271;51.114;13.780;2023-03-11T02:52:35;18.83;;;2.97;;
572;SDS011;271;51.114;13.780;2023-03-11T02:55:23;18.05;;;2.75;;
572;SDS011;271;51.114;13.780;2023-03-11T02:58:11;18.17;;;2.83;;
572;SDS011;271;51.114;13.780;2023-03-11T03:01:00;19.15;;;3.40;;
572;SDS011;271;51.114;13.780;2023-03-11T03:03:48;18.92;;;3.53;;
572;SDS011;271;51.114;13.780;2023-03-11T03:06:36;19.88;;;3.33;;
572;SDS011;271;51.114;13.780;2023-03-11T03:09:23;18.50;;;3.00;;
572;SDS011;271;51.114;13.780;2023-03-11T03:12:11;20.25;;;3.10;;
572;SDS011;271;51.114;13.780;2023-03-11T03:14:59;18.50;;;2.97;;
572;SDS011;271;51.114;13.780;2023-03-11T03:17:48;18.92;;;3.50;;
572;SDS011;271;51.114;13.780;2023-03-11T03:20:36;18.30;;;3.20;;
572;SDS011;271;51.114;13.780;2023-03-11T03:23:24;17.90;;;2.70;;
572;SDS011;271;51.114;13.780;2023-03-11T03:26:12;19.40;;;3.15;;
572;SDS011;271;51.114;13.780;2023-03-11T03:29:00;17.70;;;2.35;;
572;SDS011;271;51.114;13.780;2023-03-11T03:31:47;17.85;;;2.53;;
572;SDS011;271;51.114;13.780;2023-03-11T03:34:36;18.33;;;2.65;;
572;SDS011;271;51.114;13.780;2023-03-11T03:37:24;18.13;;;2.65;;
572;SDS011;271;51.114;13.780;2023-03-11T03:40:13;18.45;;;2.85;;
572;SDS011;271;51.114;13.780;2023-03-11T03:43:01;19.30;;;3.30;;
572;SDS011;271;51.114;13.780;2023-03-11T03:45:54;21.13;;;3.53;;
572;SDS011;271;51.114;13.780;2023-03-11T03:48:42;18.30;;;3.00;;
572;SDS011;271;51.114;13.780;2023-03-11T03:51:31;19.50;;;3.65;;
572;SDS011;271;51.114;13.780;2023-03-11T03:54:20;19.75;;;3.90;;
572;SDS011;271;51.114;13.780;2023-03-11T03:57:07;20.05;;;4.47;;
572;SDS011;271;51.114;13.780;2023-03-11T03:59:55;21.35;;;4.55;;
572;SDS011;271;51.114;13.780;2023-03-11T04:02:43;21.70;;;4.90;;
572;SDS011;271;51.114;13.780;2023-03-11T04:05:31;21.42;;;5.78;;
572;SDS011;271;51.114;13.780;2023-03-11T04:08:20;21.33;;;5.20;;
572;SDS011;271;51.114;13.780;2023-03-11T04:11:08;21.30;;;5.80;;
572;SDS011;271;51.114;13.780;2023-03-11T04:13:55;20.60;;;5.20;;
572;SDS011;271;51.114;13.780;2023-03-11T04:16:43;20.38;;;4.75;;
572;SDS011;271;51.114;13.780;2023-03-11T04:19:31;20.40;;;5.03;;
572;SDS011;271;51.114;13.780;2023-03-11T04:22:18;20.25;;;5.43;;
572;SDS011;271;51.114;13.780;2023-03-11T04:25:08;20.65;;;5.20;;
572;SDS011;271;51.114;13.780;2023-03-11T04:27:56;21.02;;;5.20;;
572;SDS011;271;51.114;13.780;2023-03-11T04:30:44;23.23;;;6.15;;
572;SDS011;271;51.114;13.780;2023-03-11T04:33:31;21.60;;;5.47;;
572;SDS011;271;51.114;13.780;2023-03-11T04:36:19;21.55;;;5.93;;
572;SDS011;271;51.114;13.780;2023-03-11T04:39:07;22.45;;;6.70;;
572;SDS011;271;51.114;13.780;2023-03-11T04:41:56;21.98;;;6.82;;
572;SDS011;271;51.114;13.780;2023-03-11T04:44:44;23.02;;;6.75;;
572;SDS011;271;51.114;13.780;2023-03-11T04:47:32;23.63;;;7.55;;
572;SDS011;271;51.114;13.780;2023-03-11T04:50:19;23.40;;;7.22;;
572;SDS011;271;51.114;13.780;2023-03-11T04:53:07;21.08;;;4.97;;
572;SDS011;271;51.114;13.780;2023-03-11T04:55:55;24.70;;;6.65;;
572;SDS011;271;51.114;13.780;2023-03-11T04:58:44;22.52;;;7.05;;
572;SDS011;271;51.114;13.780;2023-03-11T05:01:32;22.63;;;6.95;;
572;SDS011;271;51.114;13.780;2023-03-11T05:04:20;23.30;;;7.68;;
572;SDS011;271;51.114;13.780;2023-03-11T05:07:07;26.02;;;8.90;;
572;SDS011;271;51.114;13.780;2023-03-11T05:09:55;23.08;;;7.13;;
572;SDS011;271;51.114;13.780;2023-03-11T05:12:43;23.15;;;6.80;;
572;SDS011;271;51.114;13.780;2023-03-11T05:15:32;23.85;;;8.07;;
572;SDS011;271;51.114;13.780;2023-03-11T05:18:20;24.77;;;7.75;;
572;SDS011;271;51.114;13.780;2023-03-11T05:21:08;24.95;;;7.85;;
572;SDS011;271;51.114;13.780;2023-03-11T05:23:55;24.30;;;7.80;;
572;SDS011;271;51.114;13.780;2023-03-11T05:26:43;23.67;;;7.60;;
572;SDS011;271;51.114;13.780;2023-03-11T05:29:31;23.70;;;7.70;;
572;SDS011;271;51.114;13.780;2023-03-11T05:32:20;23.55;;;7.65;;
572;SDS011;271;51.114;13.780;2023-03-11T05:35:08;24.40;;;8.13;;
572;SDS011;271;51.114;13.780;2023-03-11T05:37:56;24.80;;;8.23;;
572;SDS011;271;51.114;13.780;2023-03-11T05:40:43;24.70;;;8.23;;
572;SDS011;271;51.114;13.780;2023-03-11T05:43:31;23.02;;;7.65;;
572;SDS011;271;51.114;13.780;2023-03-11T05:46:19;24.23;;;8.30;;
572;SDS011;271;51.114;13.780;2023-03-11T05:49:08;24.35;;;6.72;;
572;SDS011;271;51.114;13.780;2023-03-11T05:51:56;23.42;;;7.95;;
572;SDS011;271;51.114;13.780;2023-03-11T05:54:43;23.05;;;6.82;;
572;SDS011;271;51.114;13.780;2023-03-11T05:57:34;23.75;;;7.03;;
572;SDS011;271;51.114;13.780;2023-03-11T06:00:22;23.45;;;7.82;;
572;SDS011;271;51.114;13.780;2023-03-11T06:03:10;23.10;;;7.10;;
572;SDS011;271;51.114;13.780;2023-03-11T06:05:59;26.23;;;7.65;;
572;SDS011;271;51.114;13.780;2023-03-11T06:08:46;24.75;;;7.60;;
572;SDS011;271;51.114;13.780;2023-03-11T06:11:35;23.80;;;7.47;;
572;SDS011;271;51.114;13.780;2023-03-11T06:14:22;24.60;;;6.90;;
572;SDS011;271;51.114;13.780;2023-03-11T06:17:10;22.35;;;6.68;;
572;SDS011;271;51.114;13.780;2023-03-11T06:19:58;24.00;;;7.40;;
572;SDS011;271;51.114;13.780;2023-03-11T06:22:48;24.25;;;7.50;;
572;SDS011;271;51.114;13.780;2023-03-11T06:25:35;22.75;;;6.90;;
572;SDS011;271;51.114;13.780;2023-03-11T06:28:23;25.17;;;7.85;;
572;SDS011;271;51.114;13.780;2023-03-11T06:31:12;26.42;;;8.55;;
572;SDS011;271;51.114;13.780;2023-03-11T06:34:01;24.35;;;8.50;;
572;SDS011;271;51.114;13.780;2023-03-11T06:36:50;24.33;;;8.20;;
572;SDS011;271;51.114;13.780;2023-03-11T06:39:40;24.88;;;8.77;;
572;SDS011;271;51.114;13.780;2023-03-11T06:42:28;25.77;;;8.90;;
572;SDS011;271;51.114;13.780;2023-03-11T06:45:16;24.83;;;8.15;;
572;SDS011;271;51.114;13.780;2023-03-11T06:48:04;25.02;;;8.35;;
572;SDS011;271;51.114;13.780;2023-03-11T06:50:52;24.75;;;9.05;;
572;SDS011;271;51.114;13.780;2023-03-11T06:53:40;25.58;;;9.75;;
572;SDS011;271;51.114;13.780;2023-03-11T06:56:30;24.35;;;7.53;;
572;SDS011;271;51.114;13.780;2023-03-11T06:59:17;24.33;;;7.45;;
572;SDS011;271;51.114;13.780;2023-03-11T07:02:09;26.52;;;8.43;;
572;SDS011;271;51.114;13.780;2023-03-11T07:04:59;25.92;;;9.75;;
572;SDS011;271;51.114;13.780;2023-03-11T07:07:47;25.98;;;8.60;;
572;SDS011;271;51.114;13.780;2023-03-11T07:10:34;24.80;;;8.32;;
572;SDS011;271;51.114;13.780;2023-03-11T07:13:24;24.52;;;8.15;;
572;SDS011;271;51.114;13.780;2023-03-11T07:16:12;25.48;;;8.55;;
572;SDS011;271;51.114;13.780;2023-03-11T07:19:01;28.00;;;10.32;;
572;SDS011;271;51.114;13.780;2023-03-11T07:21:48;25.38;;;8.75;;
572;SDS011;271;51.114;13.780;2023-03-11T07:24:37;25.10;;;8.45;;
572;SDS011;271;51.114;13.780;2023-03-11T07:27:26;27.48;;;9.82;;
572;SDS011;271;51.114;13.780;2023-03-11T07:30:15;26.50;;;9.15;;
572;SDS011;271;51.114;13.780;2023-03-11T07:33:03;27.23;;;9.25;;
572;SDS011;271;51.114;13.780;2023-03-11T07:35:51;24.92;;;8.40;;
572;SDS011;271;51.114;13.780;2023-03-11T07:38:39;27.65;;;9.35;;
572;SDS011;271;51.114;13.780;2023-03-11T07:41:28;25.67;;;8.57;;
572;SDS011;271;51.114;13.780;2023-03-11T07:44:16;26.25;;;8.85;;
572;SDS011;271;51.114;13.780;2023-03-11T07:47:05;26.50;;;8.50;;
572;SDS011;271;51.114;13.780;2023-03-11T07:49:53;28.27;;;9.68;;
572;SDS011;271;51.114;13.780;2023-03-11T07:52:47;26.90;;;9.57;;
572;SDS011;271;51.114;13.780;2023-03-11T07:55:35;26.65;;;8.88;;
572;SDS011;271;51.114;13.780;2023-03-11T07:58:22;25.80;;;8.32;;
572;SDS011;271;51.114;13.780;2023-03-11T08:01:11;27.98;;;9.10;;
572;SDS011;271;51.114;13.780;2023-03-11T08:04:02;25.75;;;9.13;;
572;SDS011;271;51.114;13.780;2023-03-11T08:06:53;28.65;;;9.30;;
572;SDS011;271;51.114;13.780;2023-03-11T08:09:40;25.63;;;8.55;;
572;SDS011;271;51.114;13.780;2023-03-11T08:12:29;26.92;;;9.57;;
572;SDS011;271;51.114;13.780;2023-03-11T08:15:17;26.48;;;9.32;;
572;SDS011;271;51.114;13.780;2023-03-11T08:18:04;26.52;;;9.55;;
572;SDS011;271;51.114;13.780;2023-03-11T08:20:53;26.58;;;8.82;;
572;SDS011;271;51.114;13.780;2023-03-11T08:23:41;26.35;;;9.00;;
572;SDS011;271;51.114;13.780;2023-03-11T08:26:29;26.17;;;9.27;;
572;SDS011;271;51.114;13.780;2023-03-11T08:29:17;27.48;;;9.07;;
572;SDS011;271;51.114;13.780;2023-03-11T08:32:05;26.48;;;9.70;;
572;SDS011;271;51.114;13.780;2023-03-11T08:34:53;27.25;;;9.30;;
572;SDS011;271;51.114;13.780;2023-03-11T08:37:42;26.83;;;9.23;;
572;SDS011;271;51.114;13.780;2023-03-11T08:40:29;27.17;;;10.15;;
572;SDS011;271;51.114;13.780;2023-03-11T08:43:17;28.67;;;10.30;;
572;SDS011;271;51.114;13.780;2023-03-11T08:46:05;27.35;;;9.90;;
572;SDS011;271;51.114;13.780;2023-03-11T08:48:53;26.65;;;9.65;;
572;SDS011;271;51.114;13.780;2023-03-11T08:51:41;26.67;;;10.15;;
572;SDS011;271;51.114;13.780;2023-03-11T08:54:30;26.48;;;9.80;;
572;SDS011;271;51.114;13.780;2023-03-11T08:57:19;28.95;;;10.70;;
572;SDS011;271;51.114;13.780;2023-03-11T09:00:07;28.17;;;10.10;;
572;SDS011;271;51.114;13.780;2023-03-11T09:02:56;28.00;;;10.15;;
572;SDS011;271;51.114;13.780;2023-03-11T09:05:43;29.42;;;11.20;;
572;SDS011;271;51.114;13.780;2023-03-11T09:08:31;29.50;;;10.88;;
572;SDS011;271;51.114;13.780;2023-03-11T09:11:21;27.73;;;9.60;;
572;SDS011;271;51.114;13.780;2023-03-11T09:14:09;27.50;;;9.88;;
572;SDS011;271;51.114;13.780;2023-03-11T09:16:57;25.95;;;9.90;;
572;SDS011;271;51.114;13.780;2023-03-11T09:19:45;26.42;;;9.43;;
572;SDS011;271;51.114;13.780;2023-03-11T09:22:32;28.45;;;10.52;;
572;SDS011;271;51.114;13.780;2023-03-11T09:25:20;28.30;;;10.48;;
572;SDS011;271;51.114;13.780;2023-03-11T09:28:09;26.23;;;10.15;;
572;SDS011;271;51.114;13.780;2023-03-11T09:30:57;26.88;;;9.93;;
572;SDS011;271;51.114;13.780;2023-03-11T09:33:45;27.05;;;10.07;;
572;SDS011;271;51.114;13.780;2023-03-11T09:36:34;27.88;;;9.82;;
572;SDS011;271;51.114;13.780;2023-03-11T09:39:25;27.10;;;10.00;;
572;SDS011;271;51.114;13.780;2023-03-11T09:42:15;27.38;;;9.85;;
572;SDS011;271;51.114;13.780;2023-03-11T09:45:10;27.65;;;10.27;;
572;SDS011;271;51.114;13.780;2023-03-11T09:48:06;27.83;;;10.82;;
572;SDS011;271;51.114;13.780;2023-03-11T09:51:14;29.50;;;11.82;;
572;SDS011;271;51.114;13.780;2023-03-11T09:54:08;26.73;;;10.30;;
572;SDS011;271;51.114;13.780;2023-03-11T09:56:57;29.50;;;11.77;;
572;SDS011;271;51.114;13.780;2023-03-11T09:59:48;28.10;;;10.60;;
572;SDS011;271;51.114;13.780;2023-03-11T10:02:38;29.85;;;12.40;;
572;SDS011;271;51.114;13.780;2023-03-11T10:05:26;30.77;;;11.38;;
572;SDS011;271;51.114;13.780;2023-03-11T10:08:18;35.28;;;15.02;;
572;SDS011;271;51.114;13.780;2023-03-11T10:14:36;34.60;;;13.35;;
572;SDS011;271;51.114;13.780;2023-03-11T10:17:42;29.92;;;11.50;;
572;SDS011;271;51.114;13.780;2023-03-11T10:20:41;31.77;;;13.10;;
572;SDS011;271;51.114;13.780;2023-03-11T10:23:56;34.90;;;14.15;;
572;SDS011;271;51.114;13.780;2023-03-11T10:27:15;27.67;;;11.13;;
572;SDS011;271;51.114;13.780;2023-03-11T10:30:08;28.30;;;10.52;;
572;SDS011;271;51.114;13.780;2023-03-11T10:33:04;28.90;;;9.75;;
572;SDS011;271;51.114;13.780;2023-03-11T10:36:00;29.90;;;10.35;;
572;SDS011;271;51.114;13.780;2023-03-11T10:38:51;27.10;;;10.90;;
572;SDS011;271;51.114;13.780;2023-03-11T10:41:42;27.50;;;10.68;;
572;SDS011;271;51.114;13.780;2023-03-11T10:44:33;25.75;;;9.68;;
572;SDS011;271;51.114;13.780;2023-03-11T10:47:22;25.30;;;8.10;;
572;SDS011;271;51.114;13.780;2023-03-11T10:50:12;28.42;;;9.57;;
572;SDS011;271;51.114;13.780;2023-03-11T10:53:08;27.23;;;9.73;;
572;SDS011;271;51.114;13.780;2023-03-11T10:55:59;26.42;;;10.38;;
572;SDS011;271;51.114;13.780;2023-03-11T10:58:47;26.45;;;9.55;;
572;SDS011;271;51.114;13.780;2023-03-11T11:01:35;25.70;;;9.13;;
572;SDS011;271;51.114;13.780;2023-03-11T11:04:30;27.00;;;8.88;;
572;SDS011;271;51.114;13.780;2023-03-11T11:07:28;26.00;;;8.55;;
572;SDS011;271;51.114;13.780;2023-03-11T11:10:18;25.98;;;7.63;;
572;SDS011;271;51.114;13.780;2023-03-11T11:13:16;24.00;;;7.43;;
572;SDS011;271;51.114;13.780;2023-03-11T11:16:15;24.45;;;8.27;;
572;SDS011;271;51.114;13.780;2023-03-11T11:19:07;23.23;;;8.02;;
572;SDS011;271;51.114;13.780;2023-03-11T11:21:56;24.55;;;7.75;;
572;SDS011;271;51.114;13.780;2023-03-11T11:24:53;23.38;;;7.10;;
572;SDS011;271;51.114;13.780;2023-03-11T11:27:44;23.58;;;7.15;;
572;SDS011;271;51.114;13.780;2023-03-11T11:30:50;21.52;;;6.00;;
572;SDS011;271;51.114;13.780;2023-03-11T11:33:41;23.50;;;7.50;;
572;SDS011;271;51.114;13.780;2023-03-11T11:36:36;22.85;;;6.70;;
572;SDS011;271;51.114;13.780;2023-03-11T11:39:24;21.88;;;7.25;;
572;SDS011;271;51.114;13.780;2023-03-11T11:42:16;22.10;;;6.97;;
572;SDS011;271;51.114;13.780;2023-03-11T11:45:08;21.73;;;6.47;;
572;SDS011;271;51.114;13.780;2023-03-11T11:48:02;22.98;;;7.63;;
572;SDS011;271;51.114;13.780;2023-03-11T11:50:54;21.60;;;7.28;;
572;SDS011;271;51.114;13.780;2023-03-11T11:53:46;22.65;;;7.13;;
572;SDS011;271;51.114;13.780;2023-03-11T11:56:42;21.60;;;7.05;;
572;SDS011;271;51.114;13.780;2023-03-11T11:59:32;24.00;;;7.85;;
572;SDS011;271;51.114;13.780;2023-03-11T12:02:24;21.60;;;6.20;;
572;SDS011;271;51.114;13.780;2023-03-11T12:05:22;20.60;;;6.53;;
572;SDS011;271;51.114;13.780;2023-03-11T12:08:15;20.60;;;6.05;;
572;SDS011;271;51.114;13.780;2023-03-11T12:11:09;21.23;;;6.38;;
572;SDS011;271;51.114;13.780;2023-03-11T12:14:06;22.08;;;6.85;;
572;SDS011;271;51.114;13.780;2023-03-11T12:17:02;20.38;;;6.10;;
572;SDS011;271;51.114;13.780;2023-03-11T12:19:51;21.98;;;6.47;;
572;SDS011;271;51.114;13.780;2023-03-11T12:22:54;22.15;;;6.90;;
572;SDS011;271;51.114;13.780;2023-03-11T12:25:59;21.20;;;6.53;;
572;SDS011;271;51.114;13.780;2023-03-11T12:28:52;21.60;;;6.65;;
572;SDS011;271;51.114;13.780;2023-03-11T12:31:43;23.48;;;7.13;;
572;SDS011;271;51.114;13.780;2023-03-11T12:34:34;23.58;;;7.20;;
572;SDS011;271;51.114;13.780;2023-03-11T12:37:22;22.90;;;6.72;;
572;SDS011;271;51.114;13.780;2023-03-11T12:53:41;22.77;;;6.68;;
572;SDS011;271;51.114;13.780;2023-03-11T12:56:32;21.30;;;6.28;;
572;SDS011;271;51.114;13.780;2023-03-11T12:59:43;22.15;;;7.25;;
572;SDS011;271;51.114;13.780;2023-03-11T13:06:20;21.50;;;7.10;;
572;SDS011;271;51.114;13.780;2023-03-11T13:09:26;20.63;;;5.70;;
572;SDS011;271;51.114;13.780;2023-03-11T13:12:37;20.88;;;6.20;;
572;SDS011;271;51.114;13.780;2023-03-11T13:15:28;21.35;;;6.70;;
572;SDS011;271;51.114;13.780;2023-03-11T13:18:27;19.70;;;5.75;;
572;SDS011;271;51.114;13.780;2023-03-11T13:24:39;19.52;;;5.40;;
572;SDS011;271;51.114;13.780;2023-03-11T13:27:36;20.58;;;6.00;;
572;SDS011;271;51.114;13.780;2023-03-11T13:30:32;20.02;;;5.80;;
572;SDS011;271;51.114;13.780;2023-03-11T13:33:23;20.25;;;5.72;;
572;SDS011;271;51.114;13.780;2023-03-11T13:36:18;19.90;;;4.90;;
572;SDS011;271;51.114;13.780;2023-03-11T13:39:42;21.35;;;6.10;;
572;SDS011;271;51.114;13.780;2023-03-11T13:42:39;19.55;;;5.35;;
572;SDS011;271;51.114;13.780;2023-03-11T13:45:31;18.20;;;4.60;;
572;SDS011;271;51.114;13.780;2023-03-11T13:48:21;19.00;;;4.85;;
572;SDS011;271;51.114;13.780;2023-03-11T13:51:15;18.23;;;4.70;;
572;SDS011;271;51.114;13.780;2023-03-11T13:54:13;19.75;;;4.53;;
572;SDS011;271;51.114;13.780;2023-03-11T13:57:16;21.90;;;4.97;;
572;SDS011;271;51.114;13.780;2023-03-11T14:00:13;18.30;;;4.70;;
572;SDS011;271;51.114;13.780;2023-03-11T14:03:02;20.58;;;5.40;;
572;SDS011;271;51.114;13.780;2023-03-11T14:05:58;17.70;;;4.65;;
572;SDS011;271;51.114;13.780;2023-03-11T14:08:54;19.33;;;4.85;;
572;SDS011;271;51.114;13.780;2023-03-11T14:11:44;18.40;;;4.85;;
572;SDS011;271;51.114;13.780;2023-03-11T14:14:36;20.10;;;5.80;;
572;SDS011;271;51.114;13.780;2023-03-11T14:17:38;19.15;;;6.10;;
572;SDS011;271;51.114;13.780;2023-03-11T14:20:26;23.42;;;7.00;;
572;SDS011;271;51.114;13.780;2023-03-11T14:23:17;19.30;;;5.57;;
572;SDS011;271;51.114;13.780;2023-03-11T14:26:07;20.27;;;6.00;;
572;SDS011;271;51.114;13.780;2023-03-11T14:29:00;21.02;;;6.22;;
572;SDS011;271;51.114;13.780;2023-03-11T14:31:55;23.98;;;7.47;;
572;SDS011;271;51.114;13.780;2023-03-11T14:34:43;19.63;;;4.85;;
572;SDS011;271;51.114;13.780;2023-03-11T14:37:32;23.30;;;6.75;;
572;SDS011;271;51.114;13.780;2023-03-11T14:40:21;18.50;;;4.82;;
572;SDS011;271;51.114;13.780;2023-03-11T14:43:11;21.70;;;5.03;;
572;SDS011;271;51.114;13.780;2023-03-11T14:46:00;18.15;;;4.80;;
572;SDS011;271;51.114;13.780;2023-03-11T14:48:49;19.10;;;5.07;;
572;SDS011;271;51.114;13.780;2023-03-11T14:51:38;18.45;;;4.45;;
572;SDS011;271;51.114;13.780;2023-03-11T14:54:26;21.67;;;5.13;;
572;SDS011;271;51.114;13.780;2023-03-11T14:57:19;19.73;;;5.18;;
572;SDS011;271;51.114;13.780;2023-03-11T15:00:12;20.90;;;5.40;;
572;SDS011;271;51.114;13.780;2023-03-11T15:03:20;22.20;;;5.30;;
572;SDS011;271;51.114;13.780;2023-03-11T15:06:12;19.00;;;4.82;;
572;SDS011;271;51.114;13.780;2023-03-11T15:09:04;17.92;;;4.25;;
572;SDS011;271;51.114;13.780;2023-03-11T15:11:54;19.38;;;4.90;;
572;SDS011;271;51.114;13.780;2023-03-11T15:14:47;19.40;;;4.78;;
572;SDS011;271;51.114;13.780;2023-03-11T15:17:53;18.45;;;4.75;;
572;SDS011;271;51.114;13.780;2023-03-11T15:20:43;19.83;;;5.28;;
572;SDS011;271;51.114;13.780;2023-03-11T15:23:34;18.40;;;5.05;;
572;SDS011;271;51.114;13.780;2023-03-11T15:26:23;18.02;;;4.22;;
572;SDS011;271;51.114;13.780;2023-03-11T15:29:18;18.42;;;4.38;;
572;SDS011;271;51.114;13.780;2023-03-11T15:32:23;19.65;;;4.80;;
572;SDS011;271;51.114;13.780;2023-03-11T15:35:21;18.10;;;4.63;;
572;SDS011;271;51.114;13.780;2023-03-11T15:38:16;19.92;;;5.18;;
572;SDS011;271;51.114;13.780;2023-03-11T15:41:08;17.83;;;4.72;;
572;SDS011;271;51.114;13.780;2023-03-11T15:43:57;20.98;;;6.18;;
572;SDS011;271;51.114;13.780;2023-03-11T15:46:47;19.50;;;5.03;;
572;SDS011;271;51.114;13.780;2023-03-11T15:49:35;19.30;;;4.75;;
572;SDS011;271;51.114;13.780;2023-03-11T15:52:23;20.42;;;5.72;;
572;SDS011;271;51.114;13.780;2023-03-11T15:55:13;25.35;;;5.47;;
572;SDS011;271;51.114;13.780;2023-03-11T15:58:01;19.95;;;4.30;;
572;SDS011;271;51.114;13.780;2023-03-11T16:00:53;18.95;;;4.60;;
572;SDS011;271;51.114;13.780;2023-03-11T16:03:42;19.73;;;4.95;;
572;SDS011;271;51.114;13.780;2023-03-11T16:06:29;19.40;;;4.25;;
572;SDS011;271;51.114;13.780;2023-03-11T16:09:17;18.13;;;4.38;;
572;SDS011;271;51.114;13.780;2023-03-11T16:12:10;24.10;;;5.97;;
572;SDS011;271;51.114;13.780;2023-03-11T16:15:00;21.63;;;4.70;;
572;SDS011;271;51.114;13.780;2023-03-11T16:17:49;19.98;;;4.85;;
572;SDS011;271;51.114;13.780;2023-03-11T16:20:37;19.77;;;4.78;;
572;SDS011;271;51.114;13.780;2023-03-11T16:23:28;19.02;;;5.15;;
572;SDS011;271;51.114;13.780;2023-03-11T16:26:20;18.35;;;4.43;;
572;SDS011;271;51.114;13.780;2023-03-11T16:29:10;18.42;;;4.65;;
572;SDS011;271;51.114;13.780;2023-03-11T16:32:15;18.98;;;4.40;;
572;SDS011;271;51.114;13.780;2023-03-11T16:35:03;17.75;;;4.35;;
572;SDS011;271;51.114;13.780;2023-03-11T16:37:51;19.20;;;5.25;;
572;SDS011;271;51.114;13.780;2023-03-11T16:40:39;19.13;;;4.85;;
572;SDS011;271;51.114;13.780;2023-03-11T16:43:28;20.20;;;5.40;;
572;SDS011;271;51.114;13.780;2023-03-11T16:46:18;18.30;;;4.82;;
572;SDS011;271;51.114;13.780;2023-03-11T16:49:06;19.13;;;5.20;;
572;SDS011;271;51.114;13.780;2023-03-11T16:51:54;19.77;;;5.38;;
572;SDS011;271;51.114;13.780;2023-03-11T16:54:42;19.45;;;5.28;;
572;SDS011;271;51.114;13.780;2023-03-11T16:57:30;18.50;;;4.28;;
572;SDS011;271;51.114;13.780;2023-03-11T17:00:18;19.55;;;5.00;;
572;SDS011;271;51.114;13.780;2023-03-11T17:03:08;20.50;;;5.60;;
572;SDS011;271;51.114;13.780;2023-03-11T17:06:01;21.38;;;4.90;;
572;SDS011;271;51.114;13.780;2023-03-11T17:08:49;20.65;;;5.78;;
572;SDS011;271;51.114;13.780;2023-03-11T17:11:37;24.08;;;7.30;;
572;SDS011;271;51.114;13.780;2023-03-11T17:14:25;27.55;;;8.15;;
572;SDS011;271;51.114;13.780;2023-03-11T17:17:13;25.33;;;8.27;;
572;SDS011;271;51.114;13.780;2023-03-11T17:20:02;23.30;;;7.97;;
572;SDS011;271;51.114;13.780;2023-03-11T17:22:51;23.15;;;8.13;;
572;SDS011;271;51.114;13.780;2023-03-11T17:25:39;35.60;;;9.98;;
572;SDS011;271;51.114;13.780;2023-03-11T17:28:27;24.17;;;7.85;;
572;SDS011;271;51.114;13.780;2023-03-11T17:31:16;27.55;;;8.82;;
572;SDS011;271;51.114;13.780;2023-03-11T17:34:04;34.55;;;12.10;;
572;SDS011;271;51.114;13.780;2023-03-11T17:36:53;33.67;;;9.05;;
572;SDS011;271;51.114;13.780;2023-03-11T17:39:41;38.42;;;14.45;;
572;SDS011;271;51.114;13.780;2023-03-11T17:42:29;21.48;;;7.03;;
572;SDS011;271;51.114;13.780;2023-03-11T17:45:17;23.17;;;7.07;;
572;SDS011;271;51.114;13.780;2023-03-11T17:48:04;21.80;;;7.25;;
572;SDS011;271;51.114;13.780;2023-03-11T17:50:52;20.48;;;7.10;;
572;SDS011;271;51.114;13.780;2023-03-11T17:53:43;22.55;;;6.97;;
572;SDS011;271;51.114;13.780;2023-03-11T17:56:32;21.00;;;6.57;;
572;SDS011;271;51.114;13.780;2023-03-11T17:59:20;22.15;;;6.60;;
572;SDS011;271;51.114;13.780;2023-03-11T18:02:09;20.88;;;6.90;;
572;SDS011;271;51.114;13.780;2023-03-11T18:04:59;21.25;;;6.75;;